Time;durP1;ratioP1;P1;durP2;ratioP2;P2;SDS_P1;SDS_P2;PMS_P1;PMS_P2;Temp;Humidity;BMP_temperature;BMP_pressure;BME280_temperature;BME280_humidity;BME280_pressure;Samples;Min_cycle;Max_cycle;Signal;HPM_P1;HPM_P2
2023/04/01 00:02:07;;;;;;;23.77;13.67;;;9.50;99.90;;;;;;4976013;28;20540;-79
2023/04/01 00:04:34;;;;;;;22.97;13.47;;;9.50;99.90;;;;;;4958619;28;20256;-78
2023/04/01 00:07:01;;;;;;;27.83;14.10;;;9.50;99.90;;;;;;4975960;28;20208;-80
2023/04/01 00:09:28;;;;;;;23.83;13.67;;;9.50;99.90;;;;;;4958480;28;20233;-78
2023/04/01 00:11:59;;;;;;;23.33;13.57;;;9.50;99.90;;;;;;4958590;28;20651;-79
2023/04/01 00:14:30;;;;;;;24.03;12.53;;;9.50;99.90;;;;;;4958622;28;20285;-78
2023/04/01 00:16:57;;;;;;;24.00;13.00;;;9.40;99.90;;;;;;4957968;28;20229;-80
2023/04/01 00:19:24;;;;;;;23.87;13.43;;;9.40;99.90;;;;;;4958654;28;20245;-79
2023/04/01 00:21:52;;;;;;;22.83;13.60;;;9.50;99.90;;;;;;4958042;28;20582;-83
2023/04/01 00:24:18;;;;;;;24.00;12.80;;;9.40;99.90;;;;;;4958704;28;20202;-81
2023/04/01 00:26:47;;;;;;;24.27;13.27;;;9.40;99.90;;;;;;4975720;28;20201;-82
2023/04/01 00:29:14;;;;;;;27.00;12.77;;;9.40;99.90;;;;;;4958414;28;20194;-82
2023/04/01 00:31:41;;;;;;;22.40;14.30;;;9.40;99.90;;;;;;4975958;28;20598;-83
2023/04/01 00:34:09;;;;;;;24.23;13.60;;;9.40;99.90;;;;;;4975734;28;20553;-77
2023/04/01 00:36:37;;;;;;;22.27;13.70;;;9.30;99.90;;;;;;4957874;28;20595;-77
2023/04/01 00:39:04;;;;;;;29.17;14.93;;;9.40;99.90;;;;;;4958222;28;20193;-83
2023/04/01 00:41:30;;;;;;;25.00;14.30;;;9.30;99.90;;;;;;4958673;28;20208;-81
2023/04/01 00:44:22;;;;;;;28.57;14.63;;;9.30;99.90;;;;;;4959624;28;20216;-83
2023/04/01 00:46:49;;;;;;;27.30;15.20;;;9.30;99.90;;;;;;4959324;28;20197;-82
2023/04/01 00:49:19;;;;;;;25.70;14.70;;;9.20;99.90;;;;;;4978707;28;20193;-81
2023/04/01 00:51:50;;;;;;;26.17;15.33;;;9.20;99.90;;;;;;4958247;28;20655;-82
2023/04/01 00:54:26;;;;;;;27.63;15.93;;;9.20;99.90;;;;;;4958218;28;20316;-84
2023/04/01 00:57:09;;;;;;;23.00;14.43;;;9.10;99.90;;;;;;4975386;28;20717;-84
2023/04/01 00:59:43;;;;;;;26.60;15.30;;;9.20;99.90;;;;;;4958178;28;20202;-83
2023/04/01 01:02:12;;;;;;;26.13;15.33;;;9.20;99.90;;;;;;4958038;28;20198;-83
2023/04/01 01:04:40;;;;;;;26.00;14.93;;;9.20;99.90;;;;;;4957289;28;20197;-83
2023/04/01 01:07:32;;;;;;;27.10;15.63;;;9.20;99.90;;;;;;4957935;28;20660;-83
2023/04/01 01:10:16;;;;;;;28.33;14.90;;;9.20;99.90;;;;;;4958035;28;20264;-82
2023/04/01 01:13:10;;;;;;;28.57;15.10;;;9.20;99.90;;;;;;4957849;28;20678;-80
2023/04/01 01:15:53;;;;;;;25.20;14.83;;;9.20;99.90;;;;;;4958132;28;20205;-83
2023/04/01 01:18:44;;;;;;;31.37;14.33;;;9.20;99.90;;;;;;4957744;28;20229;-81
2023/04/01 01:21:20;;;;;;;24.17;14.20;;;9.10;99.90;;;;;;4957574;28;20207;-80
2023/04/01 01:24:06;;;;;;;30.27;15.13;;;9.00;99.90;;;;;;4957102;28;20252;-81
2023/04/01 01:26:48;;;;;;;25.17;14.50;;;9.00;99.90;;;;;;4957393;28;20638;-81
2023/04/01 01:29:37;;;;;;;25.10;14.97;;;8.90;99.90;;;;;;4974811;28;20215;-81
2023/04/01 01:32:26;;;;;;;24.90;14.50;;;8.90;99.90;;;;;;4957474;28;20212;-81
2023/04/01 01:35:07;;;;;;;26.87;15.03;;;8.90;99.90;;;;;;4957140;28;20254;-82
2023/04/01 01:37:35;;;;;;;27.47;15.07;;;8.90;99.90;;;;;;4957029;28;20240;-82
2023/04/01 01:40:06;;;;;;;27.30;15.20;;;8.90;99.90;;;;;;4957360;28;20189;-80
2023/04/01 01:42:37;;;;;;;24.53;14.97;;;8.80;99.90;;;;;;4958068;28;20236;-80
2023/04/01 01:45:05;;;;;;;25.20;15.17;;;8.90;99.90;;;;;;4959098;28;20215;-79
2023/04/01 01:47:34;;;;;;;28.93;15.23;;;8.90;99.90;;;;;;4975784;28;20201;-78
2023/04/01 01:50:03;;;;;;;24.90;15.20;;;8.90;99.90;;;;;;4974639;28;20542;-81
2023/04/01 01:52:30;;;;;;;27.83;15.30;;;8.90;99.90;;;;;;4966638;28;20205;-79
2023/04/01 01:54:58;;;;;;;25.43;14.83;;;8.80;99.90;;;;;;4961306;28;20738;-79
2023/04/01 01:57:37;;;;;;;26.40;15.30;;;8.80;99.90;;;;;;4974166;28;20229;-78
2023/04/01 02:00:13;;;;;;;32.17;16.03;;;8.80;99.90;;;;;;4956945;28;20552;-82
2023/04/01 02:02:46;;;;;;;27.40;15.97;;;8.80;99.90;;;;;;4974277;28;20247;-79
2023/04/01 02:05:22;;;;;;;27.00;15.97;;;8.80;99.90;;;;;;4973849;28;20189;-78
2023/04/01 02:08:10;;;;;;;28.57;15.87;;;8.90;99.90;;;;;;4956596;28;20571;-79
2023/04/01 02:10:41;;;;;;;30.33;16.73;;;8.90;99.90;;;;;;4956788;28;20186;-79
2023/04/01 02:13:17;;;;;;;28.63;15.43;;;9.00;99.90;;;;;;4957256;28;20205;-79
2023/04/01 02:15:47;;;;;;;24.60;15.13;;;9.00;99.90;;;;;;4956576;28;20279;-79
2023/04/01 02:18:15;;;;;;;28.33;15.77;;;9.10;99.90;;;;;;4973469;28;20303;-80
2023/04/01 02:20:44;;;;;;;27.70;15.67;;;9.10;99.90;;;;;;4956780;28;20206;-79
2023/04/01 02:23:12;;;;;;;26.93;15.27;;;9.10;99.90;;;;;;4956716;28;20201;-81
2023/04/01 02:25:39;;;;;;;27.87;15.73;;;9.10;99.90;;;;;;4956564;28;20209;-81
2023/04/01 02:28:08;;;;;;;28.07;15.67;;;9.10;99.90;;;;;;4974096;28;20193;-79
2023/04/01 02:30:38;;;;;;;29.00;15.73;;;9.10;99.90;;;;;;4956710;28;20204;-79
2023/04/01 02:33:06;;;;;;;29.60;16.53;;;9.10;99.90;;;;;;4973660;28;20194;-81
2023/04/01 02:35:36;;;;;;;29.43;16.43;;;9.20;99.90;;;;;;4956158;28;20295;-78
2023/04/01 02:38:04;;;;;;;34.37;16.53;;;9.10;99.90;;;;;;4956415;28;20232;-78
2023/04/01 02:40:50;;;;;;;30.50;16.27;;;9.10;99.90;;;;;;4956592;28;20201;-74
2023/04/01 02:43:19;;;;;;;31.80;17.07;;;9.00;99.90;;;;;;4956596;28;20240;-75
2023/04/01 02:45:47;;;;;;;28.53;16.60;;;9.00;99.90;;;;;;4973814;28;20268;-80
2023/04/01 02:48:14;;;;;;;29.13;16.13;;;9.00;99.90;;;;;;4973992;28;20193;-79
2023/04/01 02:50:41;;;;;;;33.87;17.00;;;8.90;99.90;;;;;;4956799;28;20194;-80
2023/04/01 02:53:08;;;;;;;27.00;16.83;;;8.90;99.90;;;;;;4956650;28;20194;-79
2023/04/01 02:55:35;;;;;;;27.67;16.63;;;8.80;99.90;;;;;;4956421;28;20212;-79
2023/04/01 02:58:02;;;;;;;31.23;18.40;;;8.80;99.90;;;;;;4956410;28;20551;-78
2023/04/01 03:00:28;;;;;;;29.83;16.93;;;8.70;99.90;;;;;;4956029;28;20251;-77
2023/04/01 03:02:56;;;;;;;31.97;18.10;;;8.80;99.90;;;;;;4973932;28;20651;-78
2023/04/01 03:05:23;;;;;;;30.33;17.07;;;8.70;99.90;;;;;;4956443;28;20190;-78
2023/04/01 03:07:50;;;;;;;33.43;18.03;;;8.60;99.90;;;;;;4956035;28;20257;-76
2023/04/01 03:10:17;;;;;;;33.27;18.57;;;8.60;99.90;;;;;;4973396;28;20197;-79
2023/04/01 03:12:44;;;;;;;34.50;19.60;;;8.60;99.90;;;;;;4956273;28;20206;-78
2023/04/01 03:15:14;;;;;;;33.50;19.60;;;8.60;99.90;;;;;;4973383;28;20551;-77
2023/04/01 03:17:42;;;;;;;35.10;19.77;;;8.60;99.90;;;;;;4955988;28;20566;-84
2023/04/01 03:20:10;;;;;;;36.83;20.03;;;8.60;99.90;;;;;;4956092;28;20205;-75
2023/04/01 03:22:37;;;;;;;33.57;19.57;;;8.70;99.90;;;;;;4956170;28;20240;-80
2023/04/01 03:25:08;;;;;;;33.70;19.63;;;8.70;99.90;;;;;;4973391;28;20198;-75
2023/04/01 03:27:35;;;;;;;34.77;19.53;;;8.70;99.90;;;;;;4957703;28;20271;-80
2023/04/01 03:30:05;;;;;;;37.50;20.13;;;8.60;99.90;;;;;;4943735;28;20253;-76
2023/04/01 03:32:32;;;;;;;35.90;20.10;;;8.60;99.90;;;;;;4959767;28;20200;-75
2023/04/01 03:34:59;;;;;;;34.97;19.93;;;8.60;99.90;;;;;;4959505;28;20212;-74
2023/04/01 03:37:26;;;;;;;37.37;20.80;;;8.60;99.90;;;;;;4976470;28;20271;-77
2023/04/01 03:39:53;;;;;;;32.47;19.33;;;8.50;99.90;;;;;;4959483;28;20241;-79
2023/04/01 03:42:20;;;;;;;33.13;19.10;;;8.50;99.90;;;;;;4959713;28;20236;-78
2023/04/01 03:44:46;;;;;;;37.00;20.17;;;8.50;99.90;;;;;;4960917;28;20205;-78
2023/04/01 03:47:13;;;;;;;36.73;20.60;;;8.40;99.90;;;;;;4962250;28;20240;-76
2023/04/01 03:49:40;;;;;;;34.80;19.87;;;8.40;99.90;;;;;;4959396;28;20213;-77
2023/04/01 03:52:10;;;;;;;36.80;20.20;;;8.40;99.90;;;;;;4963953;28;20200;-77
2023/04/01 03:54:37;;;;;;;34.67;19.30;;;8.40;99.90;;;;;;4963709;28;20268;-77
2023/04/01 03:57:05;;;;;;;36.77;20.47;;;8.40;99.90;;;;;;4976832;28;20221;-75
2023/04/01 03:59:32;;;;;;;36.60;20.47;;;8.40;99.90;;;;;;4959124;28;20268;-76
2023/04/01 04:01:59;;;;;;;36.47;20.07;;;8.40;99.90;;;;;;4976190;28;20200;-77
2023/04/01 04:04:26;;;;;;;40.37;21.10;;;8.50;99.90;;;;;;4976154;28;20201;-77
2023/04/01 04:06:54;;;;;;;35.80;20.13;;;8.40;99.90;;;;;;4958782;28;20201;-74
2023/04/01 04:09:21;;;;;;;36.90;20.27;;;8.50;99.90;;;;;;4958540;28;20201;-76
2023/04/01 04:11:49;;;;;;;39.47;20.40;;;8.60;99.90;;;;;;4975868;28;20722;-76
2023/04/01 04:14:19;;;;;;;34.37;20.47;;;8.60;99.90;;;;;;4958545;28;20290;-76
2023/04/01 04:16:47;;;;;;;32.47;20.03;;;8.60;99.90;;;;;;4958501;28;20233;-75
2023/04/01 04:19:14;;;;;;;38.50;19.83;;;8.60;99.90;;;;;;4975987;28;20221;-77
2023/04/01 04:21:42;;;;;;;33.13;19.00;;;8.60;99.90;;;;;;4958566;28;20269;-73
2023/04/01 04:24:10;;;;;;;33.00;18.43;;;8.60;99.90;;;;;;4975713;28;20204;-73
2023/04/01 04:26:36;;;;;;;33.53;19.67;;;8.60;99.90;;;;;;4957958;28;20197;-74
2023/04/01 04:29:03;;;;;;;32.67;19.00;;;8.70;99.90;;;;;;4958248;28;20198;-74
2023/04/01 04:31:30;;;;;;;33.00;18.73;;;8.70;99.90;;;;;;4958173;28;20571;-76
2023/04/01 04:33:59;;;;;;;31.57;18.43;;;8.70;99.90;;;;;;4958108;28;20193;-75
2023/04/01 04:36:27;;;;;;;31.80;17.57;;;8.70;99.90;;;;;;4975094;28;20228;-79
2023/04/01 04:38:54;;;;;;;31.97;18.90;;;8.80;99.90;;;;;;4956914;28;20225;-74
2023/04/01 04:41:21;;;;;;;33.57;18.33;;;8.80;99.90;;;;;;4958037;28;20190;-78
2023/04/01 04:43:57;;;;;;;31.43;17.23;;;8.80;99.90;;;;;;4975160;28;20268;-76
2023/04/01 04:46:25;;;;;;;30.40;17.07;;;8.80;99.90;;;;;;4958231;28;20256;-78
2023/04/01 04:48:52;;;;;;;30.20;17.70;;;8.90;99.90;;;;;;4957745;28;20220;-78
2023/04/01 04:51:20;;;;;;;30.20;16.07;;;8.90;99.90;;;;;;4975200;28;20205;-79
2023/04/01 04:53:48;;;;;;;25.70;15.23;;;8.90;99.90;;;;;;4957590;28;20202;-75
2023/04/01 04:56:19;;;;;;;25.13;14.50;;;8.90;99.90;;;;;;4957500;28;20198;-77
2023/04/01 04:58:47;;;;;;;23.97;14.57;;;8.90;99.90;;;;;;4957458;28;20240;-76
2023/04/01 05:01:16;;;;;;;24.20;13.90;;;8.90;99.90;;;;;;4957670;28;20217;-76
2023/04/01 05:03:43;;;;;;;24.27;13.87;;;8.80;99.90;;;;;;4957583;28;20205;-77
2023/04/01 05:06:17;;;;;;;20.77;13.57;;;8.90;99.90;;;;;;4957609;28;20237;-75
2023/04/01 05:08:46;;;;;;;22.73;14.13;;;8.90;99.90;;;;;;4974671;28;20235;-78
2023/04/01 05:11:15;;;;;;;22.40;14.03;;;8.90;99.90;;;;;;4957428;28;20209;-77
2023/04/01 05:13:43;;;;;;;22.17;13.50;;;8.90;99.90;;;;;;4957105;28;20206;-77
2023/04/01 05:16:11;;;;;;;24.07;13.37;;;8.90;99.90;;;;;;4957165;28;20197;-77
2023/04/01 05:18:38;;;;;;;23.23;13.80;;;8.90;99.90;;;;;;4974662;28;20224;-78
2023/04/01 05:21:07;;;;;;;23.57;13.37;;;9.00;99.90;;;;;;4957274;28;20209;-76
2023/04/01 05:23:34;;;;;;;20.47;13.07;;;9.10;99.90;;;;;;4957417;28;20276;-78
2023/04/01 05:26:06;;;;;;;21.73;13.73;;;9.10;99.90;;;;;;4957312;28;20193;-77
2023/04/01 05:28:33;;;;;;;21.37;12.77;;;9.10;99.90;;;;;;4957438;28;20288;-78
2023/04/01 05:31:05;;;;;;;20.47;13.27;;;9.10;99.90;;;;;;4957349;28;20190;-77
2023/04/01 05:33:32;;;;;;;22.30;12.27;;;9.00;99.90;;;;;;4957140;28;20201;-78
2023/04/01 05:36:11;;;;;;;20.70;12.23;;;9.00;99.90;;;;;;4957006;28;20247;-78
2023/04/01 05:38:38;;;;;;;19.93;11.80;;;9.10;99.90;;;;;;4956940;28;20296;-78
2023/04/01 05:41:06;;;;;;;19.83;11.73;;;9.10;99.90;;;;;;4974254;28;20528;-77
2023/04/01 05:43:36;;;;;;;18.27;11.67;;;9.10;99.90;;;;;;4957269;28;20223;-78
2023/04/01 05:46:03;;;;;;;18.73;11.03;;;9.10;99.90;;;;;;4957203;28;20193;-78
2023/04/01 05:48:30;;;;;;;19.67;10.90;;;9.20;99.90;;;;;;4956490;28;20322;-77
2023/04/01 05:51:00;;;;;;;17.23;10.90;;;9.30;99.90;;;;;;4956614;28;20288;-77
2023/04/01 05:53:27;;;;;;;19.20;11.23;;;9.30;99.90;;;;;;4956671;28;20728;-77
2023/04/01 05:55:54;;;;;;;19.50;10.60;;;9.30;99.90;;;;;;4973853;28;20193;-77
2023/04/01 05:58:22;;;;;;;19.23;11.37;;;9.30;99.90;;;;;;4974079;28;20223;-76
2023/04/01 06:00:49;;;;;;;18.63;11.03;;;9.30;99.90;;;;;;4956871;28;20204;-77
2023/04/01 06:03:34;;;;;;;19.77;11.47;;;9.30;99.90;;;;;;4973943;28;20273;-76
2023/04/01 06:06:03;;;;;;;25.13;12.93;;;9.30;99.90;;;;;;4956581;28;20209;-73
2023/04/01 06:08:31;;;;;;;22.40;12.43;;;9.30;99.90;;;;;;4940623;28;20264;-74
2023/04/01 06:11:22;;;;;;;21.97;12.10;;;9.30;99.90;;;;;;4956428;28;20193;-75
2023/04/01 06:14:16;;;;;;;26.43;14.33;;;9.30;99.90;;;;;;4956375;28;20189;-75
2023/04/01 06:17:02;;;;;;;23.60;13.90;;;9.20;99.90;;;;;;4936616;29;20237;-79
2023/04/01 06:19:37;;;;;;;22.03;13.77;;;9.20;99.90;;;;;;4953082;29;20230;-77
2023/04/01 06:22:23;;;;;;;25.50;15.20;;;9.20;99.90;;;;;;4954328;29;20202;-77
2023/04/01 06:25:22;;;;;;;25.63;14.87;;;9.20;99.90;;;;;;4937120;29;20209;-79
2023/04/01 06:28:14;;;;;;;25.90;15.90;;;9.20;99.90;;;;;;4943130;29;20226;-74
2023/04/01 06:30:50;;;;;;;33.47;15.93;;;9.10;99.90;;;;;;4936875;29;20202;-76
2023/04/01 06:33:29;;;;;;;28.73;16.47;;;9.20;99.90;;;;;;4954429;29;20201;-77
2023/04/01 06:36:43;;;;;;;29.17;16.50;;;9.20;99.90;;;;;;4936866;29;20233;-78
2023/04/01 06:39:28;;;;;;;27.77;15.73;;;9.20;99.90;;;;;;4879603;29;20617;-78
2023/04/01 06:42:02;;;;;;;34.17;17.40;;;9.20;99.90;;;;;;4879705;29;20204;-75
2023/04/01 06:45:01;;;;;;;28.67;16.40;;;9.30;99.90;;;;;;4895058;29;20311;-75
2023/04/01 06:47:38;;;;;;;29.77;16.63;;;9.40;99.90;;;;;;4879291;29;20213;-78
2023/04/01 06:50:16;;;;;;;28.80;16.87;;;9.50;99.90;;;;;;4895464;29;20678;-77
2023/04/01 06:53:16;;;;;;;34.90;18.33;;;9.60;99.90;;;;;;4879620;29;20210;-75
2023/04/01 06:55:55;;;;;;;29.33;17.50;;;9.60;99.90;;;;;;4895272;29;20295;-76
2023/04/01 06:58:30;;;;;;;31.63;18.30;;;9.80;99.90;;;;;;4863827;29;20706;-77
2023/04/01 07:01:01;;;;;;;29.13;17.93;;;9.70;99.90;;;;;;4879241;29;20199;-75
2023/04/01 07:03:42;;;;;;;27.87;17.50;;;9.70;99.90;;;;;;4882106;29;20204;-75
2023/04/01 07:06:31;;;;;;;28.97;17.30;;;9.70;99.90;;;;;;4882539;29;20207;-80
2023/04/01 07:09:06;;;;;;;29.53;17.47;;;9.80;99.90;;;;;;4898484;29;20611;-77
2023/04/01 07:11:38;;;;;;;28.20;18.07;;;9.80;99.90;;;;;;4898307;29;20214;-77
2023/04/01 07:14:22;;;;;;;32.40;17.90;;;9.80;99.90;;;;;;4936344;29;20679;-77
2023/04/01 07:17:20;;;;;;;31.33;18.57;;;9.80;99.90;;;;;;4955967;29;20221;-74
2023/04/01 07:19:54;;;;;;;34.60;18.17;;;9.70;99.90;;;;;;4940152;29;20229;-75
2023/04/01 07:22:49;;;;;;;35.17;18.60;;;9.70;99.90;;;;;;4957340;29;20271;-75
2023/04/01 07:25:22;;;;;;;31.10;18.57;;;9.80;99.90;;;;;;4879016;29;20308;-74
2023/04/01 07:27:52;;;;;;;31.67;18.43;;;9.80;99.90;;;;;;4879315;29;20220;-75
2023/04/01 07:30:23;;;;;;;29.93;18.23;;;9.80;99.90;;;;;;4863791;29;20217;-76
2023/04/01 07:33:13;;;;;;;31.57;18.93;;;9.80;99.90;;;;;;4879368;29;20256;-75
2023/04/01 07:35:45;;;;;;;29.13;18.20;;;9.70;99.90;;;;;;4878831;29;20220;-74
2023/04/01 07:38:43;;;;;;;29.83;18.50;;;9.80;99.90;;;;;;4863348;29;20241;-75
2023/04/01 07:41:29;;;;;;;28.90;18.03;;;9.80;99.90;;;;;;4878959;29;20215;-76
2023/04/01 07:44:14;;;;;;;28.50;17.80;;;9.90;99.90;;;;;;4879096;29;20205;-74
2023/04/01 07:46:55;;;;;;;27.00;18.17;;;10.00;99.90;;;;;;4878829;29;20223;-81
2023/04/01 07:49:32;;;;;;;31.17;18.97;;;10.10;99.90;;;;;;4878841;29;20201;-82
2023/04/01 07:52:11;;;;;;;31.73;19.27;;;10.20;99.90;;;;;;4878859;29;20220;-78
2023/04/01 07:54:50;;;;;;;30.60;18.53;;;10.30;99.90;;;;;;4863074;29;20207;-78
2023/04/01 07:57:34;;;;;;;28.67;18.37;;;10.50;99.90;;;;;;4878641;29;20204;-79
2023/04/01 08:00:17;;;;;;;30.77;18.10;;;10.50;99.90;;;;;;4878712;29;20224;-83
2023/04/01 08:02:56;;;;;;;25.77;17.10;;;10.50;99.90;;;;;;4931526;29;20538;-81
2023/04/01 08:05:27;;;;;;;30.07;18.23;;;10.50;99.90;;;;;;4956561;29;20301;-77
2023/04/01 08:08:40;;;;;;;27.37;17.70;;;10.40;99.90;;;;;;4939529;29;20222;-78
2023/04/01 08:11:31;;;;;;;27.17;17.70;;;10.30;99.90;;;;;;4862991;29;20205;-81
2023/04/01 08:14:18;;;;;;;26.50;17.33;;;10.40;99.90;;;;;;4862660;29;20192;-80
2023/04/01 08:16:48;;;;;;;29.27;18.10;;;10.30;99.90;;;;;;4860065;29;20229;-80
2023/04/01 08:19:52;;;;;;;32.40;19.57;;;10.30;99.90;;;;;;4845382;29;20226;-76
2023/04/01 08:22:48;;;;;;;29.77;18.47;;;10.40;99.90;;;;;;4844565;29;20273;-77
2023/04/01 08:25:24;;;;;;;26.53;16.97;;;10.40;99.90;;;;;;4859836;29;20206;-77
2023/04/01 08:28:02;;;;;;;27.93;17.70;;;10.40;99.90;;;;;;4844318;29;20194;-77
2023/04/01 08:30:40;;;;;;;28.87;17.63;;;10.50;99.90;;;;;;4859824;29;20208;-77
2023/04/01 08:33:27;;;;;;;27.37;18.03;;;10.50;99.90;;;;;;4859491;29;20218;-77
2023/04/01 08:36:03;;;;;;;28.93;18.43;;;10.60;99.90;;;;;;4859343;29;20248;-76
2023/04/01 08:38:40;;;;;;;26.47;16.87;;;10.70;99.90;;;;;;4859335;29;20205;-75
2023/04/01 08:41:35;;;;;;;28.97;17.40;;;10.60;99.90;;;;;;4859495;29;20275;-75
2023/04/01 08:44:20;;;;;;;25.80;16.30;;;10.60;99.90;;;;;;4859607;29;20206;-76
2023/04/01 08:47:24;;;;;;;23.87;15.60;;;10.80;99.90;;;;;;4843730;29;20209;-75
2023/04/01 08:50:01;;;;;;;23.70;15.83;;;10.80;99.90;;;;;;4957690;28;20197;-77
2023/04/01 08:52:56;;;;;;;25.67;15.83;;;10.60;99.90;;;;;;4957772;28;20325;-75
2023/04/01 08:56:03;;;;;;;24.63;15.50;;;10.60;99.90;;;;;;4957703;28;21099;-77
2023/04/01 08:59:16;;;;;;;24.33;15.47;;;10.70;99.90;;;;;;4957177;28;20607;-76
2023/04/01 09:02:25;;;;;;;26.40;15.73;;;10.50;99.90;;;;;;4957396;28;20197;-76
2023/04/01 09:05:10;;;;;;;27.03;16.80;;;10.60;99.90;;;;;;4957164;28;20716;-76
2023/04/01 09:07:58;;;;;;;18.77;12.13;;;10.50;99.90;;;;;;4957210;28;20212;-76
2023/04/01 09:10:43;;;;;;;15.73;10.40;;;10.30;99.90;;;;;;4974737;28;20194;-77
2023/04/01 09:13:19;;;;;;;18.37;11.37;;;10.30;99.90;;;;;;4975009;28;20244;-75
2023/04/01 09:16:13;;;;;;;19.17;11.83;;;10.30;99.90;;;;;;4974815;28;20211;-76
2023/04/01 09:19:22;;;;;;;19.23;12.30;;;10.40;99.90;;;;;;4941226;28;20204;-76
2023/04/01 09:22:26;;;;;;;19.10;12.17;;;10.50;99.90;;;;;;4947572;28;20208;-76
2023/04/01 09:25:12;;;;;;;16.23;10.30;;;10.70;99.90;;;;;;4974000;28;20217;-76
2023/04/01 09:28:02;;;;;;;21.90;11.27;;;10.40;99.90;;;;;;4974650;28;20541;-75
2023/04/01 09:30:39;;;;;;;13.23;9.10;;;10.60;99.90;;;;;;4957086;28;20228;-76
2023/04/01 09:33:34;;;;;;;14.80;9.77;;;10.60;99.90;;;;;;4974419;28;20189;-75
2023/04/01 09:36:23;;;;;;;14.80;9.50;;;10.60;99.90;;;;;;4929622;28;20702;-75
2023/04/01 09:38:57;;;;;;;13.10;8.80;;;10.50;99.90;;;;;;4974571;28;20193;-75
2023/04/01 09:41:31;;;;;;;17.17;10.10;;;10.20;99.90;;;;;;4974122;28;20604;-75
2023/04/01 09:44:50;;;;;;;14.77;9.20;;;10.00;99.90;;;;;;4956795;28;20194;-75
2023/04/01 09:47:36;;;;;;;16.13;9.57;;;10.10;99.90;;;;;;4864492;29;20218;-75
2023/04/01 09:50:06;;;;;;;17.90;10.53;;;10.10;99.90;;;;;;4895519;29;20208;-75
2023/04/01 09:52:54;;;;;;;16.63;10.67;;;10.10;99.90;;;;;;4880222;29;20232;-74
2023/04/01 09:55:47;;;;;;;16.80;10.43;;;10.20;99.90;;;;;;4895555;29;20212;-74
2023/04/01 09:59:01;;;;;;;18.43;11.10;;;10.20;99.90;;;;;;4895472;29;20566;-75
2023/04/01 10:01:52;;;;;;;16.80;10.83;;;10.10;99.90;;;;;;4895674;29;20672;-73
2023/04/01 10:04:43;;;;;;;9.57;6.07;;;10.00;99.90;;;;;;4839868;29;20214;-74
2023/04/01 10:07:28;;;;;;;12.70;6.33;;;9.80;99.90;;;;;;4824640;29;20213;-75
2023/04/01 10:09:55;;;;;;;8.33;5.67;;;9.80;99.90;;;;;;4824557;29;20712;-75
2023/04/01 10:12:46;;;;;;;9.90;5.57;;;9.70;99.90;;;;;;4839809;29;20470;-73
2023/04/01 10:15:32;;;;;;;7.13;4.43;;;9.80;99.90;;;;;;4785284;30;20242;-75
2023/04/01 10:18:29;;;;;;;7.20;4.40;;;9.90;99.90;;;;;;4770032;30;20331;-75
2023/04/01 10:21:06;;;;;;;7.83;4.90;;;9.90;99.90;;;;;;4791202;29;20236;-74
2023/04/01 10:24:15;;;;;;;7.03;4.63;;;9.90;99.90;;;;;;4803391;29;20221;-75
2023/04/01 10:27:08;;;;;;;5.80;4.07;;;9.90;99.90;;;;;;4788295;29;20292;-74
2023/04/01 10:30:07;;;;;;;7.00;4.30;;;9.90;99.90;;;;;;4803278;29;20302;-75
2023/04/01 10:33:15;;;;;;;7.77;4.40;;;9.70;99.90;;;;;;4785063;30;20223;-74
2023/04/01 10:36:19;;;;;;;7.03;3.93;;;9.90;99.90;;;;;;4784924;29;20213;-75
2023/04/01 10:39:16;;;;;;;6.17;3.90;;;10.10;99.90;;;;;;4788503;30;20261;-74
2023/04/01 10:42:02;;;;;;;5.77;3.83;;;10.10;99.90;;;;;;4824774;29;20221;-74
2023/04/01 10:45:03;;;;;;;6.07;3.70;;;10.10;99.90;;;;;;4846524;29;20239;-74
2023/04/01 10:47:58;;;;;;;5.90;3.60;;;10.10;99.90;;;;;;4846351;29;20300;-74
2023/04/01 10:50:54;;;;;;;4.97;3.90;;;10.10;99.90;;;;;;4846027;29;20706;-76
2023/04/01 10:53:45;;;;;;;7.87;3.93;;;10.30;99.90;;;;;;4894105;29;20215;-73
2023/04/01 10:56:11;;;;;;;4.60;3.60;;;10.20;99.90;;;;;;4882838;29;20205;-75
2023/04/01 10:59:06;;;;;;;5.30;3.77;;;10.20;99.90;;;;;;4883084;29;20211;-76
2023/04/01 11:01:51;;;;;;;5.20;3.50;;;10.40;99.90;;;;;;4898568;29;20655;-76
2023/04/01 11:04:36;;;;;;;4.80;3.70;;;10.50;99.90;;;;;;4898620;29;20280;-75
2023/04/01 11:07:30;;;;;;;6.10;3.60;;;10.70;99.90;;;;;;4882865;29;20205;-75
2023/04/01 11:10:11;;;;;;;5.57;3.47;;;10.70;99.90;;;;;;4932382;29;20206;-75
2023/04/01 11:13:14;;;;;;;4.90;3.63;;;10.70;99.90;;;;;;4957308;29;20190;-74
2023/04/01 11:16:17;;;;;;;5.03;3.60;;;10.80;99.90;;;;;;4940520;29;20205;-74
2023/04/01 11:19:10;;;;;;;4.37;3.17;;;11.00;99.90;;;;;;4879477;29;20319;-75
2023/04/01 11:21:57;;;;;;;4.70;3.07;;;11.00;99.90;;;;;;4864034;29;20197;-75
2023/04/01 11:25:09;;;;;;;4.33;3.10;;;11.00;99.90;;;;;;4879498;29;20197;-75
2023/04/01 11:27:41;;;;;;;5.57;3.37;;;11.20;99.90;;;;;;4879365;29;20235;-77
2023/04/01 11:31:01;;;;;;;4.83;3.10;;;11.20;99.90;;;;;;4879481;29;20663;-75
2023/04/01 11:33:36;;;;;;;4.47;3.50;;;10.90;99.90;;;;;;4848903;29;20213;-77
2023/04/01 11:36:20;;;;;;;6.93;4.13;;;11.10;99.90;;;;;;4853195;29;20242;-76
2023/04/01 11:39:21;;;;;;;5.23;3.90;;;11.30;99.90;;;;;;4882367;29;20215;-76
2023/04/01 11:41:57;;;;;;;6.20;4.07;;;11.20;99.90;;;;;;4897726;29;20200;-77
2023/04/01 11:44:27;;;;;;;6.43;4.70;;;11.10;99.90;;;;;;4882066;29;20215;-75
2023/04/01 11:47:21;;;;;;;6.73;4.90;;;11.10;99.90;;;;;;4881603;29;20341;-76
2023/04/01 11:50:20;;;;;;;6.40;4.20;;;11.10;99.90;;;;;;4881668;29;20243;-76
2023/04/01 11:53:17;;;;;;;7.33;4.70;;;11.10;99.90;;;;;;4881801;29;20200;-75
2023/04/01 11:56:23;;;;;;;6.67;4.53;;;11.10;99.90;;;;;;4952421;28;20218;-75
2023/04/01 11:59:28;;;;;;;7.03;4.50;;;11.10;99.90;;;;;;4942867;28;20292;-75
2023/04/01 12:02:14;;;;;;;6.50;4.90;;;11.60;99.90;;;;;;4958589;28;20650;-75
2023/04/01 12:04:54;;;;;;;7.87;5.20;;;11.70;99.90;;;;;;4958389;28;20635;-74
2023/04/01 12:07:21;;;;;;;6.23;4.83;;;11.60;99.90;;;;;;4975564;28;20277;-74
2023/04/01 12:10:21;;;;;;;8.50;5.83;;;11.60;99.90;;;;;;4958815;28;20198;-74
2023/04/01 12:13:03;;;;;;;11.10;5.30;;;11.40;99.90;;;;;;4943265;28;20198;-76
2023/04/01 12:16:02;;;;;;;8.53;5.40;;;11.40;99.90;;;;;;4975442;28;20285;-77
2023/04/01 12:18:36;;;;;;;9.83;5.87;;;11.40;99.90;;;;;;4958023;28;20229;-75
2023/04/01 12:21:38;;;;;;;9.90;6.07;;;11.40;99.90;;;;;;4941257;28;20229;-75
2023/04/01 12:24:07;;;;;;;7.40;5.40;;;11.40;99.90;;;;;;4957952;28;20239;-76
2023/04/01 12:26:46;;;;;;;9.43;6.40;;;11.40;99.90;;;;;;4957948;28;20210;-75
2023/04/01 12:29:50;;;;;;;10.70;6.30;;;11.60;99.90;;;;;;4958532;28;20193;-75
2023/04/01 12:32:38;;;;;;;9.57;6.30;;;11.50;99.90;;;;;;4958332;28;20224;-75
2023/04/01 12:35:23;;;;;;;9.23;6.17;;;11.60;99.90;;;;;;4958358;28;20609;-75
2023/04/01 12:38:26;;;;;;;8.63;5.57;;;11.60;99.90;;;;;;4957633;28;20268;-75
2023/04/01 12:41:05;;;;;;;7.93;5.47;;;11.70;99.90;;;;;;4957781;28;20687;-75
2023/04/01 12:44:00;;;;;;;8.07;5.77;;;11.70;99.90;;;;;;4957726;28;20645;-75
2023/04/01 12:46:32;;;;;;;8.50;5.63;;;11.90;99.90;;;;;;4957722;28;20197;-74
2023/04/01 12:48:59;;;;;;;7.97;5.77;;;12.10;99.90;;;;;;4957650;28;20536;-74
2023/04/01 12:51:41;;;;;;;6.80;4.63;;;12.20;99.90;;;;;;4975016;28;20193;-73
2023/04/01 12:54:38;;;;;;;7.40;4.57;;;12.20;99.90;;;;;;4957728;28;20201;-75
2023/04/01 12:57:23;;;;;;;7.80;4.80;;;12.40;99.90;;;;;;4956919;28;20202;-76
2023/04/01 13:00:04;;;;;;;6.53;4.77;;;12.70;99.90;;;;;;4956662;28;20679;-74
2023/04/01 13:02:41;;;;;;;6.57;4.47;;;12.80;99.90;;;;;;4957558;28;20204;-74
2023/04/01 13:05:14;;;;;;;7.77;4.80;;;12.50;99.90;;;;;;4957546;28;20208;-75
2023/04/01 13:08:03;;;;;;;10.03;5.60;;;12.70;99.90;;;;;;4957563;28;20201;-75
2023/04/01 13:10:45;;;;;;;8.10;4.93;;;13.10;99.90;;;;;;4896281;29;20231;-81
2023/04/01 13:13:38;;;;;;;6.90;4.83;;;13.00;99.90;;;;;;4880261;29;20204;-77
2023/04/01 13:16:26;;;;;;;11.00;5.70;;;13.00;99.90;;;;;;4895754;29;20201;-77
2023/04/01 13:19:06;;;;;;;7.03;4.80;;;13.10;99.90;;;;;;4896028;29;20259;-76
2023/04/01 13:21:39;;;;;;;6.77;4.17;;;13.00;99.90;;;;;;4880280;29;20268;-80
2023/04/01 13:24:09;;;;;;;8.53;5.10;;;13.10;99.90;;;;;;4895984;29;20281;-80
2023/04/01 13:26:54;;;;;;;6.77;4.40;;;13.30;99.90;;;;;;4895352;29;20251;-80
2023/04/01 13:29:28;;;;;;;6.90;4.70;;;13.40;99.90;;;;;;4896310;29;20215;-78
2023/04/01 13:32:46;;;;;;;6.30;4.23;;;13.20;99.90;;;;;;4896369;29;20227;-81
2023/04/01 13:35:48;;;;;;;7.40;4.77;;;13.20;99.90;;;;;;4840676;29;20220;-82
2023/04/01 13:38:33;;;;;;;7.60;5.00;;;13.30;99.90;;;;;;4825122;29;20263;-75
2023/04/01 13:41:19;;;;;;;6.37;4.40;;;13.30;99.90;;;;;;4825003;29;20237;-84